sensor_id;sensor_type;location;lat;lon;timestamp;pressure;altitude;pressure_sealevel;temperature;humidity
50696;BME280;36665;51.786;21.594;2023-03-14T00:00:13;94754.80;;;6.58;77.01
50696;BME280;36665;51.786;21.594;2023-03-14T00:08:57;94698.46;;;6.44;77.04
50696;BME280;36665;51.786;21.594;2023-03-14T00:17:21;94649.89;;;6.32;76.83
50696;BME280;36665;51.786;21.594;2023-03-14T00:25:44;94608.36;;;6.22;76.83
50696;BME280;36665;51.786;21.594;2023-03-14T00:34:06;94575.80;;;6.13;76.93
50696;BME280;36665;51.786;21.594;2023-03-14T00:42:29;94549.79;;;6.07;77.00
50696;BME280;36665;51.786;21.594;2023-03-14T00:50:54;94501.48;;;5.94;76.78
50696;BME280;36665;51.786;21.594;2023-03-14T00:59:17;94457.41;;;5.83;76.47
50696;BME280;36665;51.786;21.594;2023-03-14T01:07:41;94407.63;;;5.70;76.40
50696;BME280;36665;51.786;21.594;2023-03-14T01:16:06;94362.55;;;5.57;76.48
50696;BME280;36665;51.786;21.594;2023-03-14T01:24:32;94322.86;;;5.48;76.35
50696;BME280;36665;51.786;21.594;2023-03-14T01:32:55;94286.66;;;5.38;76.26
50696;BME280;36665;51.786;21.594;2023-03-14T01:41:22;94265.50;;;5.32;76.50
50696;BME280;36665;51.786;21.594;2023-03-14T01:49:57;94244.09;;;5.27;76.17
50696;BME280;36665;51.786;21.594;2023-03-14T01:58:24;94219.66;;;5.22;75.97
50696;BME280;36665;51.786;21.594;2023-03-14T02:06:55;94223.41;;;5.23;76.11
50696;BME280;36665;51.786;21.594;2023-03-14T02:15:26;94228.46;;;5.25;76.03
50696;BME280;36665;51.786;21.594;2023-03-14T02:32:39;94234.33;;;5.26;76.11
50696;BME280;36665;51.786;21.594;2023-03-14T02:41:03;94236.94;;;5.26;76.26
50696;BME280;36665;51.786;21.594;2023-03-14T02:49:31;94218.11;;;5.21;76.13
50696;BME280;36665;51.786;21.594;2023-03-14T02:57:55;94206.71;;;5.18;75.98
50696;BME280;36665;51.786;21.594;2023-03-14T03:06:19;94203.02;;;5.17;76.10
50696;BME280;36665;51.786;21.594;2023-03-14T03:14:42;94196.17;;;5.16;75.99
50696;BME280;36665;51.786;21.594;2023-03-14T03:23:06;94197.54;;;5.17;75.98
50696;BME280;36665;51.786;21.594;2023-03-14T03:31:29;94198.50;;;5.17;76.08
50696;BME280;36665;51.786;21.594;2023-03-14T03:39:52;94192.63;;;5.16;75.77
50696;BME280;36665;51.786;21.594;2023-03-14T03:48:15;94179.16;;;5.13;75.93
50696;BME280;36665;51.786;21.594;2023-03-14T03:56:38;94176.87;;;5.11;75.86
50696;BME280;36665;51.786;21.594;2023-03-14T04:05:02;94178.95;;;5.13;75.78
50696;BME280;36665;51.786;21.594;2023-03-14T04:13:27;94172.67;;;5.10;75.64
50696;BME280;36665;51.786;21.594;2023-03-14T04:21:51;94168.98;;;5.09;75.67
50696;BME280;36665;51.786;21.594;2023-03-14T04:30:16;94169.87;;;5.11;75.80
50696;BME280;36665;51.786;21.594;2023-03-14T04:38:44;94190.41;;;5.15;75.79
50696;BME280;36665;51.786;21.594;2023-03-14T04:47:09;94227.67;;;5.25;75.80
50696;BME280;36665;51.786;21.594;2023-03-14T04:55:34;94238.14;;;5.29;76.06
50696;BME280;36665;51.786;21.594;2023-03-14T05:03:58;94232.09;;;5.28;75.80
50696;BME280;36665;51.786;21.594;2023-03-14T05:12:35;94212.61;;;5.22;75.69
50696;BME280;36665;51.786;21.594;2023-03-14T05:21:18;94195.59;;;5.18;75.73
50696;BME280;36665;51.786;21.594;2023-03-14T05:30:01;94215.50;;;5.23;75.53
50696;BME280;36665;51.786;21.594;2023-03-14T05:38:44;94252.20;;;5.33;75.67
50696;BME280;36665;51.786;21.594;2023-03-14T05:47:25;94316.81;;;5.49;75.73
50696;BME280;36665;51.786;21.594;2023-03-14T05:56:12;94454.11;;;5.85;75.77
50696;BME280;36665;51.786;21.594;2023-03-14T06:04:54;94582.23;;;6.20;75.68
50696;BME280;36665;51.786;21.594;2023-03-14T06:13:17;94629.14;;;6.32;75.75
50696;BME280;36665;51.786;21.594;2023-03-14T06:21:41;94739.86;;;6.61;76.05
50696;BME280;36665;51.786;21.594;2023-03-14T06:30:05;95318.02;;;8.09;76.18
50696;BME280;36665;51.786;21.594;2023-03-14T06:38:29;95418.52;;;8.36;76.28
50696;BME280;36665;51.786;21.594;2023-03-14T06:46:53;95942.09;;;9.68;76.59
50696;BME280;36665;51.786;21.594;2023-03-14T06:55:23;96192.41;;;10.31;76.59
50696;BME280;36665;51.786;21.594;2023-03-14T07:03:52;96362.98;;;10.73;76.51
50696;BME280;36665;51.786;21.594;2023-03-14T07:12:17;96409.15;;;10.84;76.50
50696;BME280;36665;51.786;21.594;2023-03-14T07:20:40;96359.47;;;10.71;76.63
50696;BME280;36665;51.786;21.594;2023-03-14T07:29:04;96328.20;;;10.64;76.68
50696;BME280;36665;51.786;21.594;2023-03-14T07:37:27;96358.02;;;10.72;76.33
50696;BME280;36665;51.786;21.594;2023-03-14T07:45:52;96360.38;;;10.72;76.37
50696;BME280;36665;51.786;21.594;2023-03-14T07:54:21;96382.89;;;10.78;76.21
50696;BME280;36665;51.786;21.594;2023-03-14T08:02:44;96459.98;;;10.98;76.26
50696;BME280;36665;51.786;21.594;2023-03-14T08:11:07;96560.57;;;11.24;76.39
50696;BME280;36665;51.786;21.594;2023-03-14T08:19:33;96706.24;;;11.60;76.16
50696;BME280;36665;51.786;21.594;2023-03-14T08:27:56;96903.25;;;12.09;76.36
50696;BME280;36665;51.786;21.594;2023-03-14T08:36:20;97050.25;;;12.44;76.19
50696;BME280;36665;51.786;21.594;2023-03-14T08:44:46;97158.95;;;12.72;76.18
50696;BME280;36665;51.786;21.594;2023-03-14T08:53:12;97263.16;;;12.97;76.22
50696;BME280;36665;51.786;21.594;2023-03-14T09:01:37;97383.77;;;13.26;76.28
50696;BME280;36665;51.786;21.594;2023-03-14T09:10:00;97542.36;;;13.65;76.16
50696;BME280;36665;51.786;21.594;2023-03-14T09:18:23;97725.61;;;14.11;75.91
50696;BME280;36665;51.786;21.594;2023-03-14T09:26:46;97934.37;;;14.61;75.99
50696;BME280;36665;51.786;21.594;2023-03-14T09:35:10;98012.46;;;14.80;76.05
50696;BME280;36665;51.786;21.594;2023-03-14T09:43:34;98021.75;;;14.82;75.86
50696;BME280;36665;51.786;21.594;2023-03-14T09:52:01;98007.45;;;14.78;75.80
50696;BME280;36665;51.786;21.594;2023-03-14T10:00:29;97972.85;;;14.70;75.76
50696;BME280;36665;51.786;21.594;2023-03-14T10:08:54;97968.55;;;14.70;75.73
50696;BME280;36665;51.786;21.594;2023-03-14T10:17:19;98031.46;;;14.85;75.61
50696;BME280;36665;51.786;21.594;2023-03-14T10:25:45;98127.02;;;15.07;75.39
50696;BME280;36665;51.786;21.594;2023-03-14T10:34:16;98178.71;;;15.21;75.36
50696;BME280;36665;51.786;21.594;2023-03-14T10:42:42;98216.55;;;15.30;75.43
50696;BME280;36665;51.786;21.594;2023-03-14T10:51:19;98271.25;;;15.44;75.42
50696;BME280;36665;51.786;21.594;2023-03-14T10:59:47;98277.08;;;15.45;75.41
50696;BME280;36665;51.786;21.594;2023-03-14T11:17:00;98172.42;;;15.20;75.09
50696;BME280;36665;51.786;21.594;2023-03-14T11:25:46;98023.40;;;14.85;75.11
50696;BME280;36665;51.786;21.594;2023-03-14T11:42:53;97727.52;;;14.14;74.87
50696;BME280;36665;51.786;21.594;2023-03-14T11:51:27;97604.23;;;13.85;74.70
50696;BME280;36665;51.786;21.594;2023-03-14T12:00:04;97501.36;;;13.60;74.52
50696;BME280;36665;51.786;21.594;2023-03-14T12:09:04;97427.77;;;13.42;74.49
50696;BME280;36665;51.786;21.594;2023-03-14T12:17:37;97418.53;;;13.40;74.21
50696;BME280;36665;51.786;21.594;2023-03-14T12:34:41;97666.63;;;14.01;74.42
50696;BME280;36665;51.786;21.594;2023-03-14T12:43:25;97796.13;;;14.33;74.35
50696;BME280;36665;51.786;21.594;2023-03-14T12:51:59;97813.48;;;14.37;74.08
50696;BME280;36665;51.786;21.594;2023-03-14T13:00:29;97803.25;;;14.36;74.21
50696;BME280;36665;51.786;21.594;2023-03-14T13:08:53;97788.02;;;14.31;74.30
50696;BME280;36665;51.786;21.594;2023-03-14T13:17:24;97683.98;;;14.06;73.99
50696;BME280;36665;51.786;21.594;2023-03-14T13:25:59;97593.48;;;13.85;74.11
50696;BME280;36665;51.786;21.594;2023-03-14T13:34:26;97520.84;;;13.67;74.04
50696;BME280;36665;51.786;21.594;2023-03-14T13:43:03;97451.52;;;13.50;73.66
50696;BME280;36665;51.786;21.594;2023-03-14T13:51:27;97367.33;;;13.30;73.74
50696;BME280;36665;51.786;21.594;2023-03-14T14:00:03;97200.68;;;12.90;73.47
50696;BME280;36665;51.786;21.594;2023-03-14T14:08:31;96977.35;;;12.35;73.58
50696;BME280;36665;51.786;21.594;2023-03-14T14:16:54;96804.78;;;11.93;73.31
50696;BME280;36665;51.786;21.594;2023-03-14T14:25:18;96667.21;;;11.57;73.31
50696;BME280;36665;51.786;21.594;2023-03-14T14:33:58;96572.20;;;11.33;73.29
50696;BME280;36665;51.786;21.594;2023-03-14T14:42:26;96498.70;;;11.16;73.10
50696;BME280;36665;51.786;21.594;2023-03-14T14:51:04;96439.59;;;11.01;73.05
50696;BME280;36665;51.786;21.594;2023-03-14T14:59:28;96371.06;;;10.85;72.96
50696;BME280;36665;51.786;21.594;2023-03-14T15:07:52;96285.07;;;10.64;72.78
50696;BME280;36665;51.786;21.594;2023-03-14T15:16:29;96231.80;;;10.50;72.88
50696;BME280;36665;51.786;21.594;2023-03-14T15:24:53;96210.48;;;10.44;72.78
50696;BME280;36665;51.786;21.594;2023-03-14T15:33:16;96136.39;;;10.26;72.70
50696;BME280;36665;51.786;21.594;2023-03-14T15:41:39;96065.16;;;10.08;72.71
50696;BME280;36665;51.786;21.594;2023-03-14T15:50:03;96008.40;;;9.92;72.84
50696;BME280;36665;51.786;21.594;2023-03-14T15:58:26;95977.52;;;9.86;72.76
50696;BME280;36665;51.786;21.594;2023-03-14T16:06:49;95946.48;;;9.79;72.65
50696;BME280;36665;51.786;21.594;2023-03-14T16:15:13;95913.00;;;9.70;72.56
50696;BME280;36665;51.786;21.594;2023-03-14T16:23:36;95892.26;;;9.65;72.88
50696;BME280;36665;51.786;21.594;2023-03-14T16:32:00;95902.05;;;9.68;72.89
50696;BME280;36665;51.786;21.594;2023-03-14T16:40:26;95899.35;;;9.67;72.72
50696;BME280;36665;51.786;21.594;2023-03-14T16:48:51;95873.04;;;9.60;72.60
50696;BME280;36665;51.786;21.594;2023-03-14T16:57:14;95849.25;;;9.53;72.78
50696;BME280;36665;51.786;21.594;2023-03-14T17:05:44;95848.45;;;9.54;72.86
50696;BME280;36665;51.786;21.594;2023-03-14T17:14:07;95877.96;;;9.61;72.74
50696;BME280;36665;51.786;21.594;2023-03-14T17:22:30;95888.20;;;9.63;72.75
50696;BME280;36665;51.786;21.594;2023-03-14T17:31:09;95868.49;;;9.59;72.72
50696;BME280;36665;51.786;21.594;2023-03-14T17:39:34;95824.41;;;9.47;72.76
50696;BME280;36665;51.786;21.594;2023-03-14T17:47:58;95799.28;;;9.41;72.87
50696;BME280;36665;51.786;21.594;2023-03-14T17:56:22;95803.98;;;9.42;72.90
50696;BME280;36665;51.786;21.594;2023-03-14T18:04:45;95797.41;;;9.42;72.82
50696;BME280;36665;51.786;21.594;2023-03-14T18:13:09;95766.83;;;9.33;72.88
50696;BME280;36665;51.786;21.594;2023-03-14T18:21:34;95733.78;;;9.25;72.96
50696;BME280;36665;51.786;21.594;2023-03-14T18:29:57;95740.95;;;9.28;72.83
50696;BME280;36665;51.786;21.594;2023-03-14T18:38:21;95770.89;;;9.34;72.79
50696;BME280;36665;51.786;21.594;2023-03-14T18:46:44;95792.61;;;9.40;72.92
50696;BME280;36665;51.786;21.594;2023-03-14T18:55:08;95798.52;;;9.41;72.94
50696;BME280;36665;51.786;21.594;2023-03-14T19:03:33;95766.61;;;9.34;72.84
50696;BME280;36665;51.786;21.594;2023-03-14T19:11:57;95733.46;;;9.25;72.76
50696;BME280;36665;51.786;21.594;2023-03-14T19:20:19;95708.68;;;9.18;72.85
50696;BME280;36665;51.786;21.594;2023-03-14T19:28:42;95708.20;;;9.18;73.07
50696;BME280;36665;51.786;21.594;2023-03-14T19:37:06;95707.64;;;9.18;73.04
50696;BME280;36665;51.786;21.594;2023-03-14T19:45:30;95665.87;;;9.07;73.00
50696;BME280;36665;51.786;21.594;2023-03-14T19:53:58;95592.98;;;8.88;73.21
50696;BME280;36665;51.786;21.594;2023-03-14T20:02:27;95521.51;;;8.70;72.83
50696;BME280;36665;51.786;21.594;2023-03-14T20:10:52;95474.98;;;8.56;72.86
50696;BME280;36665;51.786;21.594;2023-03-14T20:19:15;95408.70;;;8.40;72.75
50696;BME280;36665;51.786;21.594;2023-03-14T20:27:39;95347.85;;;8.24;72.97
50696;BME280;36665;51.786;21.594;2023-03-14T20:36:03;95309.58;;;8.15;73.01
50696;BME280;36665;51.786;21.594;2023-03-14T20:44:26;95269.92;;;8.04;72.72
50696;BME280;36665;51.786;21.594;2023-03-14T20:52:49;95223.73;;;7.92;72.85
50696;BME280;36665;51.786;21.594;2023-03-14T21:01:13;95186.54;;;7.83;72.71
50696;BME280;36665;51.786;21.594;2023-03-14T21:09:37;95164.45;;;7.77;72.93
50696;BME280;36665;51.786;21.594;2023-03-14T21:18:00;95147.09;;;7.72;72.95
50696;BME280;36665;51.786;21.594;2023-03-14T21:26:27;95112.67;;;7.62;72.95
50696;BME280;36665;51.786;21.594;2023-03-14T21:34:50;95071.48;;;7.54;72.99
50696;BME280;36665;51.786;21.594;2023-03-14T21:43:16;95040.61;;;7.45;72.69
50696;BME280;36665;51.786;21.594;2023-03-14T21:51:48;95031.14;;;7.43;72.86
50696;BME280;36665;51.786;21.594;2023-03-14T22:00:15;94992.83;;;7.33;72.85
50696;BME280;36665;51.786;21.594;2023-03-14T22:08:39;94905.38;;;7.10;72.88
50696;BME280;36665;51.786;21.594;2023-03-14T22:17:02;94850.14;;;6.96;72.84
50696;BME280;36665;51.786;21.594;2023-03-14T22:25:26;94846.15;;;6.94;72.87
50696;BME280;36665;51.786;21.594;2023-03-14T22:33:51;94825.41;;;6.89;72.86
50696;BME280;36665;51.786;21.594;2023-03-14T22:42:16;94818.29;;;6.87;72.89
50696;BME280;36665;51.786;21.594;2023-03-14T22:50:39;94852.27;;;6.96;72.94
50696;BME280;36665;51.786;21.594;2023-03-14T22:59:02;94901.66;;;7.09;73.21
50696;BME280;36665;51.786;21.594;2023-03-14T23:07:25;94917.06;;;7.12;73.09
50696;BME280;36665;51.786;21.594;2023-03-14T23:15:48;94906.36;;;7.10;73.22
50696;BME280;36665;51.786;21.594;2023-03-14T23:24:11;94940.89;;;7.18;73.26
50696;BME280;36665;51.786;21.594;2023-03-14T23:32:34;95004.64;;;7.35;73.39
50696;BME280;36665;51.786;21.594;2023-03-14T23:40:58;95047.52;;;7.47;73.26
50696;BME280;36665;51.786;21.594;2023-03-14T23:49:22;95094.46;;;7.58;73.47
50696;BME280;36665;51.786;21.594;2023-03-14T23:57:46;95123.97;;;7.66;73.50
